createdAt,value
2018-05-27T00:00:07.768Z,9.23
2018-05-27T00:02:35.879Z,9.13
2018-05-27T00:05:03.992Z,11.13
2018-05-27T00:07:32.082Z,8.67
2018-05-27T00:10:00.208Z,11.73
2018-05-27T00:12:28.333Z,8.90
2018-05-27T00:14:56.409Z,8.67
2018-05-27T00:17:25.363Z,9.80
2018-05-27T00:19:53.503Z,8.77
2018-05-27T00:22:21.905Z,9.40
2018-05-27T00:24:50.028Z,8.70
2018-05-27T00:27:18.110Z,8.73
2018-05-27T00:29:46.197Z,8.43
2018-05-27T00:32:14.347Z,9.43
2018-05-27T00:34:43.593Z,9.03
2018-05-27T00:37:11.717Z,8.33
2018-05-27T00:39:39.846Z,8.00
2018-05-27T00:42:07.957Z,7.67
2018-05-27T00:44:36.055Z,11.17
2018-05-27T00:47:05.985Z,8.73
2018-05-27T00:49:34.076Z,7.67
2018-05-27T00:52:03.069Z,8.87
2018-05-27T00:54:31.186Z,9.37
2018-05-27T00:56:59.268Z,8.90
2018-05-27T00:59:27.360Z,8.53
2018-05-27T01:01:55.508Z,8.93
2018-05-27T01:04:23.588Z,8.77
2018-05-27T01:06:51.688Z,8.97
2018-05-27T01:09:19.812Z,9.53
2018-05-27T01:11:47.925Z,8.37
2018-05-27T01:14:16.035Z,8.57
2018-05-27T01:16:44.386Z,8.50
2018-05-27T01:19:12.905Z,8.87
2018-05-27T01:21:41.026Z,10.07
2018-05-27T01:24:09.132Z,7.90
2018-05-27T01:26:37.259Z,8.00
2018-05-27T01:29:05.356Z,9.13
2018-05-27T01:31:33.835Z,8.67
2018-05-27T01:34:02.019Z,8.47
2018-05-27T01:36:30.105Z,8.47
2018-05-27T01:48:38.208Z,7.97
2018-05-27T01:51:06.354Z,9.97
2018-05-27T02:06:24.503Z,8.00
2018-05-27T02:08:52.591Z,8.80
2018-05-27T02:11:20.695Z,8.03
2018-05-27T02:13:48.793Z,7.93
2018-05-27T02:16:16.881Z,9.63
2018-05-27T02:18:44.999Z,10.87
2018-05-27T02:21:13.682Z,8.33
2018-05-27T02:23:41.774Z,7.47
2018-05-27T02:26:09.876Z,8.13
2018-05-27T02:28:37.993Z,8.10
2018-05-27T02:31:06.111Z,8.40
2018-05-27T02:33:34.219Z,10.97
2018-05-27T02:36:02.350Z,9.50
2018-05-27T02:38:30.496Z,9.63
2018-05-27T02:40:59.484Z,8.37
2018-05-27T02:43:28.231Z,7.77
2018-05-27T02:45:56.378Z,8.40
2018-05-27T02:48:24.463Z,7.47
2018-05-27T02:50:52.552Z,8.50
2018-05-27T02:53:20.703Z,8.40
2018-05-27T02:55:48.974Z,8.60
2018-05-27T02:58:17.070Z,11.43
2018-05-27T03:00:45.190Z,8.97
2018-05-27T03:03:13.331Z,8.97
2018-05-27T03:05:41.428Z,8.10
2018-05-27T03:08:09.558Z,8.43
2018-05-27T03:10:37.848Z,10.63
2018-05-27T03:13:05.926Z,8.63
2018-05-27T03:15:34.123Z,8.40
2018-05-27T03:18:02.264Z,8.43
2018-05-27T03:20:30.348Z,9.47
2018-05-27T03:35:53.472Z,9.47
2018-05-27T03:38:21.564Z,9.63
2018-05-27T03:40:49.725Z,8.57
2018-05-27T03:43:17.825Z,9.53
2018-05-27T03:45:45.955Z,12.07
2018-05-27T03:48:14.038Z,8.20
2018-05-27T03:50:42.169Z,9.93
2018-05-27T03:53:10.315Z,9.97
2018-05-27T03:55:38.436Z,9.10
2018-05-27T03:58:06.546Z,8.53
2018-05-27T04:00:34.646Z,7.57
2018-05-27T04:03:03.609Z,8.53
2018-05-27T04:05:43.529Z,8.13
2018-05-27T04:21:07.433Z,7.90
2018-05-27T04:23:36.375Z,8.47
2018-05-27T04:26:05.140Z,8.10
2018-05-27T04:28:33.267Z,8.43
2018-05-27T04:31:01.342Z,8.20
2018-05-27T04:33:29.467Z,8.53
2018-05-27T04:35:58.397Z,8.70
2018-05-27T04:38:26.489Z,7.77
2018-05-27T04:40:54.613Z,9.77
2018-05-27T04:43:22.746Z,7.83
2018-05-27T04:45:51.644Z,7.30
2018-05-27T04:48:19.772Z,10.73
2018-05-27T04:50:47.943Z,8.17
2018-05-27T04:53:16.077Z,8.23
2018-05-27T04:55:44.254Z,10.70
2018-05-27T04:58:12.603Z,7.90
2018-05-27T05:00:40.698Z,11.67
2018-05-27T05:03:08.826Z,8.17
2018-05-27T05:05:36.955Z,8.17
2018-05-27T05:08:05.633Z,8.23
2018-05-27T05:10:33.763Z,8.07
2018-05-27T05:13:01.858Z,8.57
2018-05-27T05:15:29.967Z,6.53
2018-05-27T05:17:59.108Z,8.17
2018-05-27T05:20:27.539Z,8.23
2018-05-27T05:22:55.671Z,8.43
2018-05-27T05:25:23.801Z,8.10
2018-05-27T05:27:52.671Z,8.03
2018-05-27T05:30:21.305Z,8.90
2018-05-27T05:32:49.711Z,7.63
2018-05-27T05:35:17.803Z,10.73
2018-05-27T05:37:45.913Z,10.67
2018-05-27T05:40:14.254Z,8.10
2018-05-27T05:42:42.327Z,7.93
2018-05-27T05:45:10.715Z,8.87
2018-05-27T05:47:38.807Z,8.70
2018-05-27T05:50:06.904Z,7.23
2018-05-27T05:52:35.007Z,8.00
2018-05-27T05:55:03.608Z,8.20
2018-05-27T05:57:31.748Z,8.23
2018-05-27T06:00:01.394Z,7.90
2018-05-27T06:02:29.525Z,8.23
2018-05-27T06:04:58.265Z,8.53
2018-05-27T06:07:26.369Z,8.33
2018-05-27T06:09:54.488Z,8.43
2018-05-27T06:12:22.594Z,7.97
2018-05-27T06:14:50.927Z,8.93
2018-05-27T06:17:19.048Z,9.00
2018-05-27T06:19:47.149Z,8.27
2018-05-27T06:22:15.265Z,9.73
2018-05-27T06:24:44.167Z,8.17
2018-05-27T06:27:12.260Z,8.27
2018-05-27T06:29:40.368Z,9.03
2018-05-27T06:32:08.529Z,9.80
2018-05-27T06:34:41.533Z,7.30
2018-05-27T06:37:09.644Z,8.50
2018-05-27T06:39:37.757Z,9.17
2018-05-27T06:42:05.906Z,9.13
2018-05-27T06:44:34.048Z,8.77
2018-05-27T06:47:02.149Z,9.43
2018-05-27T06:49:30.256Z,10.67
2018-05-27T06:51:59.662Z,8.37
2018-05-27T06:54:27.799Z,8.70
2018-05-27T06:56:56.566Z,11.00
2018-05-27T06:59:25.027Z,9.83
2018-05-27T07:01:53.446Z,8.50
2018-05-27T07:04:21.545Z,8.80
2018-05-27T07:06:49.719Z,10.97
2018-05-27T07:09:17.823Z,8.23
2018-05-27T07:11:46.559Z,8.77
2018-05-27T07:14:14.668Z,9.10
2018-05-27T07:16:42.781Z,9.83
2018-05-27T07:19:10.886Z,9.70
2018-05-27T07:21:39.017Z,10.47
2018-05-27T07:24:07.112Z,9.17
2018-05-27T07:26:35.266Z,8.97
2018-05-27T07:29:03.423Z,11.13
2018-05-27T07:31:31.526Z,8.40
2018-05-27T07:33:59.620Z,9.57
2018-05-27T07:36:28.086Z,11.67
2018-05-27T07:38:56.166Z,9.80
2018-05-27T07:43:58.532Z,9.60
2018-05-27T07:46:26.625Z,9.90
2018-05-27T07:48:55.523Z,10.63
2018-05-27T07:51:23.659Z,10.07
2018-05-27T07:53:52.260Z,8.57
2018-05-27T07:56:20.355Z,9.23
2018-05-27T07:58:48.534Z,11.20
2018-05-27T08:01:16.965Z,9.43
2018-05-27T08:03:45.927Z,11.97
2018-05-27T08:06:14.056Z,9.93
2018-05-27T08:08:42.153Z,9.17
2018-05-27T08:11:10.269Z,10.70
2018-05-27T08:13:38.383Z,9.80
2018-05-27T08:16:06.483Z,11.10
2018-05-27T08:18:34.590Z,11.07
2018-05-27T08:21:02.708Z,9.70
2018-05-27T08:23:30.874Z,11.30
2018-05-27T08:25:58.975Z,10.53
2018-05-27T08:28:27.103Z,10.07
2018-05-27T08:30:55.780Z,12.30
2018-05-27T08:33:23.888Z,13.00
2018-05-27T08:35:52.031Z,13.17
2018-05-27T08:38:20.184Z,16.17
2018-05-27T08:40:48.297Z,11.93
2018-05-27T08:43:16.424Z,10.93
2018-05-27T08:45:45.207Z,11.77
2018-05-27T08:48:13.284Z,11.30
2018-05-27T08:50:41.880Z,14.97
2018-05-27T08:53:09.983Z,11.50
2018-05-27T08:55:38.085Z,12.40
2018-05-27T08:58:06.451Z,12.37
2018-05-27T09:00:34.553Z,11.50
2018-05-27T09:03:02.669Z,11.33
2018-05-27T09:05:30.799Z,11.03
2018-05-27T09:07:58.945Z,10.53
2018-05-27T09:10:27.050Z,13.60
2018-05-27T09:12:55.210Z,11.60
2018-05-27T09:15:23.342Z,10.97
2018-05-27T09:17:51.422Z,12.87
2018-05-27T09:20:19.525Z,10.93
2018-05-27T09:22:47.647Z,11.77
2018-05-27T09:25:15.766Z,11.50
2018-05-27T09:27:43.872Z,10.53
2018-05-27T09:30:11.982Z,12.30
2018-05-27T09:32:40.112Z,12.43
2018-05-27T09:47:58.258Z,11.33
2018-05-27T09:50:27.002Z,12.00
2018-05-27T09:52:59.429Z,11.80
2018-05-27T09:55:28.394Z,11.70
2018-05-27T09:57:56.615Z,13.53
2018-05-27T10:00:25.413Z,13.37
2018-05-27T10:02:54.233Z,11.47
2018-05-27T10:05:23.090Z,12.20
2018-05-27T10:07:51.251Z,11.13
2018-05-27T10:10:25.016Z,11.60
2018-05-27T10:12:58.724Z,12.43
2018-05-27T10:15:26.934Z,11.20
2018-05-27T10:17:55.042Z,11.07
2018-05-27T10:20:23.172Z,12.90
2018-05-27T10:22:51.448Z,12.33
2018-05-27T10:25:19.550Z,11.97
2018-05-27T10:27:47.651Z,12.70
2018-05-27T10:30:15.774Z,12.13
2018-05-27T10:32:43.914Z,12.10
2018-05-27T10:35:12.051Z,11.43
2018-05-27T10:37:40.214Z,11.07
2018-05-27T10:40:08.314Z,12.10
2018-05-27T10:42:36.425Z,11.10
2018-05-27T10:45:04.567Z,12.33
2018-05-27T10:47:32.669Z,13.23
2018-05-27T10:50:06.207Z,11.73
2018-05-27T10:52:39.855Z,11.97
2018-05-27T10:55:08.389Z,11.63
2018-05-27T10:57:36.464Z,10.93
2018-05-27T11:00:10.174Z,11.87
2018-05-27T11:02:38.288Z,11.97
2018-05-27T11:05:06.418Z,11.50
2018-05-27T11:07:34.544Z,12.37
2018-05-27T11:10:02.655Z,13.13
2018-05-27T11:12:30.803Z,12.10
2018-05-27T11:14:58.923Z,13.03
2018-05-27T11:17:27.022Z,12.53
2018-05-27T11:19:55.190Z,11.90
2018-05-27T11:22:23.310Z,12.70
2018-05-27T11:24:51.418Z,11.40
2018-05-27T11:27:19.606Z,11.87
2018-05-27T11:29:47.751Z,13.60
2018-05-27T11:32:15.846Z,11.77
2018-05-27T11:34:43.987Z,11.30
2018-05-27T11:37:12.093Z,11.93
2018-05-27T11:39:40.218Z,12.53
2018-05-27T11:42:08.980Z,11.73
2018-05-27T11:44:37.430Z,12.17
2018-05-27T11:47:05.576Z,11.93
2018-05-27T11:49:33.682Z,11.40
2018-05-27T11:52:01.824Z,11.23
2018-05-27T11:54:30.413Z,11.50
2018-05-27T11:56:58.524Z,12.30
2018-05-27T11:59:26.640Z,13.57
2018-05-27T12:01:54.755Z,13.07
2018-05-27T12:04:23.639Z,12.33
2018-05-27T12:06:51.746Z,13.77
2018-05-27T12:09:20.324Z,13.77
2018-05-27T12:11:48.444Z,13.10
2018-05-27T12:14:16.564Z,13.40
2018-05-27T12:16:44.699Z,12.07
2018-05-27T12:19:12.813Z,12.03
2018-05-27T12:21:41.813Z,12.47
2018-05-27T12:24:09.987Z,13.63
2018-05-27T12:26:38.406Z,11.87
2018-05-27T12:29:06.543Z,13.63
2018-05-27T12:31:34.661Z,12.80
2018-05-27T12:34:04.410Z,13.60
2018-05-27T12:36:32.554Z,12.00
2018-05-27T12:39:00.670Z,12.17
2018-05-27T12:41:28.785Z,13.43
2018-05-27T12:43:57.672Z,12.80
2018-05-27T12:46:25.790Z,11.97
2018-05-27T12:48:53.910Z,12.63
2018-05-27T12:51:22.024Z,12.37
2018-05-27T12:53:50.136Z,12.27
2018-05-27T12:56:18.277Z,13.20
2018-05-27T12:58:46.430Z,11.97
2018-05-27T13:01:14.580Z,12.87
2018-05-27T13:03:42.706Z,14.17
2018-05-27T13:06:10.818Z,14.13
2018-05-27T13:08:38.930Z,16.50
2018-05-27T13:11:07.106Z,15.03
2018-05-27T13:13:35.996Z,16.20
2018-05-27T13:16:04.170Z,14.73
2018-05-27T13:18:32.285Z,14.60
2018-05-27T13:21:00.397Z,16.40
2018-05-27T13:23:28.518Z,16.07
2018-05-27T13:38:46.651Z,16.40
2018-05-27T13:41:14.789Z,15.97
2018-05-27T13:43:42.934Z,15.37
2018-05-27T13:46:11.043Z,16.53
2018-05-27T13:48:39.178Z,13.93
2018-05-27T13:51:07.274Z,13.93
2018-05-27T13:53:35.945Z,12.83
2018-05-27T13:56:04.155Z,12.87
2018-05-27T13:58:32.247Z,10.60
2018-05-27T14:01:00.345Z,8.73
2018-05-27T14:03:28.469Z,7.93
2018-05-27T14:05:56.566Z,6.57
2018-05-27T14:08:24.983Z,6.80
2018-05-27T14:10:53.077Z,8.37
2018-05-27T14:13:21.165Z,5.70
2018-05-27T14:15:49.266Z,5.30
2018-05-27T14:18:17.395Z,4.93
2018-05-27T14:20:45.498Z,4.93
2018-05-27T14:23:13.585Z,5.17
2018-05-27T14:25:41.715Z,5.30
2018-05-27T14:28:09.829Z,5.80
2018-05-27T14:30:38.826Z,5.13
2018-05-27T14:33:06.969Z,5.13
2018-05-27T14:35:35.050Z,6.30
2018-05-27T14:38:03.175Z,6.43
2018-05-27T14:40:31.272Z,6.43
2018-05-27T14:42:59.481Z,5.87
2018-05-27T14:45:27.549Z,5.77
2018-05-27T14:47:55.650Z,5.60
2018-05-27T14:50:23.768Z,6.20
2018-05-27T14:52:51.871Z,4.57
2018-05-27T14:55:19.970Z,4.63
2018-05-27T14:57:48.083Z,5.03
2018-05-27T15:00:16.226Z,4.60
2018-05-27T15:02:44.343Z,5.37
2018-05-27T15:05:12.454Z,4.13
2018-05-27T15:07:40.533Z,6.63
2018-05-27T15:10:08.646Z,4.03
2018-05-27T15:12:36.810Z,4.43
2018-05-27T15:15:05.030Z,3.83
2018-05-27T15:17:33.123Z,4.57
2018-05-27T15:20:01.229Z,4.23
2018-05-27T15:35:19.960Z,7.57
2018-05-27T15:37:48.075Z,8.43
2018-05-27T15:40:16.196Z,8.47
2018-05-27T15:42:45.187Z,9.83
2018-05-27T15:45:13.287Z,11.30
2018-05-27T15:47:41.421Z,12.67
2018-05-27T15:50:09.537Z,12.03
2018-05-27T15:52:37.657Z,12.10
2018-05-27T15:55:05.776Z,13.60
2018-05-27T15:57:33.891Z,13.07
2018-05-27T16:00:02.017Z,15.00
2018-05-27T16:02:30.225Z,13.27
2018-05-27T16:04:58.329Z,13.20
2018-05-27T16:07:26.451Z,14.47
2018-05-27T16:09:54.583Z,14.43
2018-05-27T16:12:22.692Z,13.47
2018-05-27T16:14:50.823Z,14.77
2018-05-27T16:17:19.832Z,14.63
2018-05-27T16:19:47.945Z,14.80
2018-05-27T16:22:16.058Z,15.03
2018-05-27T16:24:44.177Z,14.77
2018-05-27T16:27:12.304Z,13.67
2018-05-27T16:42:35.424Z,9.37
2018-05-27T16:45:04.314Z,9.77
2018-05-27T16:47:32.421Z,9.23
2018-05-27T16:50:00.530Z,9.80
2018-05-27T16:52:28.639Z,8.63
2018-05-27T16:54:56.807Z,9.10
2018-05-27T16:57:24.891Z,10.93
2018-05-27T16:59:53.015Z,9.23
2018-05-27T17:02:21.586Z,8.53
2018-05-27T17:04:50.326Z,9.10
2018-05-27T17:07:18.421Z,9.83
2018-05-27T17:09:46.540Z,10.00
2018-05-27T17:12:14.758Z,9.27
2018-05-27T17:14:42.861Z,9.40
2018-05-27T17:17:10.968Z,10.13
2018-05-27T17:19:39.080Z,9.90
2018-05-27T17:22:07.222Z,10.10
2018-05-27T17:24:35.325Z,10.20
2018-05-27T17:27:03.483Z,10.47
2018-05-27T17:29:31.594Z,10.93
2018-05-27T17:31:59.697Z,10.90
2018-05-27T17:34:28.060Z,12.63
2018-05-27T17:36:56.456Z,11.27
2018-05-27T17:39:24.553Z,11.27
2018-05-27T17:41:52.680Z,11.10
2018-05-27T17:44:21.434Z,12.20
2018-05-27T17:46:49.764Z,10.70
2018-05-27T17:49:17.910Z,11.70
2018-05-27T17:51:46.019Z,11.30
2018-05-27T17:54:14.462Z,11.33
2018-05-27T17:56:42.580Z,12.77
2018-05-27T17:59:10.688Z,13.03
2018-05-27T18:01:38.811Z,12.00
2018-05-27T18:04:06.952Z,12.77
2018-05-27T18:06:35.054Z,13.23
2018-05-27T18:09:03.168Z,13.63
2018-05-27T18:11:31.294Z,13.73
2018-05-27T18:13:59.926Z,13.77
2018-05-27T18:16:28.032Z,13.77
2018-05-27T18:18:56.150Z,13.67
2018-05-27T18:21:24.262Z,13.67
2018-05-27T18:23:52.490Z,13.63
2018-05-27T18:26:20.566Z,13.90
2018-05-27T18:28:48.717Z,13.27
2018-05-27T18:31:16.851Z,14.17
2018-05-27T18:33:44.959Z,16.63
2018-05-27T18:36:13.066Z,14.13
2018-05-27T18:38:41.188Z,14.00
2018-05-27T18:41:09.298Z,15.40
2018-05-27T18:43:37.413Z,14.30
2018-05-27T18:46:05.547Z,15.23
2018-05-27T18:48:33.651Z,15.70
2018-05-27T19:00:41.764Z,16.23
2018-05-27T19:03:09.888Z,15.07
2018-05-27T19:05:37.993Z,15.60
2018-05-27T19:08:06.133Z,14.57
2018-05-27T19:10:34.815Z,16.90
2018-05-27T19:13:02.972Z,14.87
2018-05-27T19:15:31.063Z,15.00
2018-05-27T19:17:59.166Z,14.77
2018-05-27T19:33:17.285Z,15.30
2018-05-27T19:35:45.389Z,16.57
2018-05-27T19:38:13.497Z,15.83
2018-05-27T19:40:41.680Z,15.60
2018-05-27T19:43:09.821Z,16.50
2018-05-27T19:45:37.922Z,17.70
2018-05-27T19:48:06.091Z,17.20
2018-05-27T19:50:34.192Z,16.10
2018-05-27T19:53:02.358Z,15.70
2018-05-27T19:55:30.480Z,16.70
2018-05-27T19:57:59.544Z,17.83
2018-05-27T20:00:28.164Z,16.90
2018-05-27T20:02:56.271Z,16.77
2018-05-27T20:05:24.401Z,17.17
2018-05-27T20:07:52.522Z,16.90
2018-05-27T20:10:20.630Z,17.23
2018-05-27T20:12:49.492Z,16.77
2018-05-27T20:15:17.616Z,17.17
2018-05-27T20:17:45.730Z,18.37
2018-05-27T20:20:14.901Z,17.47
2018-05-27T20:35:33.023Z,18.50
2018-05-27T20:50:51.176Z,21.13
2018-05-27T20:53:19.281Z,18.97
2018-05-27T20:55:47.400Z,20.23
2018-05-27T20:58:15.529Z,19.87
2018-05-27T21:00:43.656Z,22.93
2018-05-27T21:03:11.758Z,21.60
2018-05-27T21:05:39.864Z,21.40
2018-05-27T21:08:12.940Z,22.87
2018-05-27T21:10:41.925Z,22.27
2018-05-27T21:13:10.032Z,24.27
2018-05-27T21:15:38.614Z,23.90
2018-05-27T21:18:06.715Z,21.90
2018-05-27T21:20:34.872Z,20.73
2018-05-27T21:23:03.044Z,22.33
2018-05-27T21:25:31.392Z,24.00
2018-05-27T21:27:59.497Z,22.37
2018-05-27T21:30:28.253Z,22.50
2018-05-27T21:32:56.349Z,22.63
2018-05-27T21:35:24.503Z,22.00
2018-05-27T21:37:52.625Z,23.60
2018-05-27T21:40:21.328Z,23.43
2018-05-27T21:42:49.448Z,25.03
2018-05-27T21:45:18.439Z,29.17
2018-05-27T21:47:46.592Z,23.20
2018-05-27T21:50:15.178Z,24.27
2018-05-27T21:52:43.294Z,21.93
2018-05-27T21:55:11.717Z,23.50
2018-05-27T21:57:39.804Z,22.43
2018-05-27T22:00:07.914Z,23.17
2018-05-27T22:02:36.028Z,21.10
2018-05-27T22:05:04.143Z,22.80
2018-05-27T22:07:32.244Z,20.17
2018-05-27T22:10:00.650Z,21.67
2018-05-27T22:12:28.774Z,21.33
2018-05-27T22:14:56.890Z,21.83
2018-05-27T22:17:25.016Z,20.40
2018-05-27T22:19:53.435Z,22.63
2018-05-27T22:22:21.531Z,22.07
2018-05-27T22:24:49.636Z,25.23
2018-05-27T22:27:17.753Z,24.33
2018-05-27T22:29:45.856Z,22.00
2018-05-27T22:32:13.999Z,22.10
2018-05-27T22:34:42.090Z,22.83
2018-05-27T22:50:05.698Z,25.90
2018-05-27T22:52:33.800Z,25.30
2018-05-27T22:55:01.901Z,28.87
2018-05-27T22:57:30.009Z,24.53
2018-05-27T22:59:58.114Z,25.03
2018-05-27T23:02:26.237Z,25.53
2018-05-27T23:04:54.350Z,24.50
2018-05-27T23:07:22.460Z,25.13
2018-05-27T23:09:50.593Z,26.90
2018-05-27T23:12:18.672Z,25.80
2018-05-27T23:14:46.792Z,26.63
2018-05-27T23:17:14.898Z,27.50
2018-05-27T23:19:43.005Z,26.70
2018-05-27T23:22:11.120Z,26.83
2018-05-27T23:24:39.225Z,28.13
2018-05-27T23:27:07.317Z,26.77
2018-05-27T23:29:35.436Z,28.77
2018-05-27T23:44:54.124Z,30.40
2018-05-27T23:47:22.570Z,26.23
2018-05-27T23:49:50.649Z,26.53
2018-05-27T23:52:18.796Z,29.23
2018-05-27T23:54:46.917Z,28.70
2018-05-27T23:57:15.770Z,30.47
2018-05-27T23:59:43.864Z,29.57
